Douglas, North Dakota
Current Conditions -  °F | °C
As of 8:54 AM on Sunday 23 Nov 2014 (Local Time) from KMOT Reporting Station
Light Snow Light Snow  
Wind Chill:   Ceiling: 2000
Heat Index: 25°   Visibility: 4mi
Dew Point: 17°   Wind: 29mph
Humidity: 72%   Direction: 250°WSW
Pressure: 29.42"   Gusts: 37mph
Location:  47.86°N, 101.5°W
Report Text: KMOT 231454Z 25025G32KT 4SM -SN OVC020 M04/M08 A2942 RMK AO2 PK WND 27037/1421 SNB13 SLP981 P0000 60000 T10391083 51024
Loading
Personal Weather Stations






























Interactive Weather Map New forecast layout! Learn more

10-Day Weather Forecast

Advertisements
Track Severe Weather on mobile